Time;durP1;ratioP1;P1;durP2;ratioP2;P2;SDS_P1;SDS_P2;PMS_P1;PMS_P2;Temp;Humidity;BMP_temperature;BMP_pressure;BME280_temperature;BME280_humidity;BME280_pressure;Samples;Min_cycle;Max_cycle;Signal;HPM_P1;HPM_P2
2022/10/24 00:02:02;;;;;;;1.30;1.30;;;;;;;;;;4996553;28;20641;-58
2022/10/24 00:04:28;;;;;;;1.40;1.40;;;;;;;;;;4994660;28;20229;-59
2022/10/24 00:06:54;;;;;;;1.57;1.57;;;;;;;;;;5003606;28;20244;-59
2022/10/24 00:09:20;;;;;;;1.80;1.70;;;;;;;;;;5003127;28;20308;-58
2022/10/24 00:11:46;;;;;;;2.00;1.90;;;;;;;;;;5001026;28;20246;-59
2022/10/24 00:14:12;;;;;;;2.00;1.90;;;;;;;;;;4989883;28;20229;-58
2022/10/24 00:16:37;;;;;;;2.10;2.00;;;;;;;;;;4979164;28;20212;-57
2022/10/24 00:19:03;;;;;;;2.03;1.93;;;;;;;;;;4983103;28;20227;-58
2022/10/24 00:21:29;;;;;;;1.90;1.80;;;;;;;;;;4991552;28;20286;-58
2022/10/24 00:23:55;;;;;;;1.90;1.80;;;;;;;;;;4988879;28;20224;-57
2022/10/24 00:26:21;;;;;;;1.60;1.60;;;;;;;;;;4991303;28;20241;-57
2022/10/24 00:28:47;;;;;;;1.70;1.70;;;;;;;;;;4993786;28;20221;-58
2022/10/24 00:31:14;;;;;;;1.90;1.80;;;;;;;;;;4986298;28;20233;-58
2022/10/24 00:33:40;;;;;;;2.10;2.00;;;;;;;;;;4979671;28;20229;-58
2022/10/24 00:36:09;;;;;;;2.23;2.13;;;;;;;;;;4983679;28;20594;-58
2022/10/24 00:38:35;;;;;;;2.00;1.90;;;;;;;;;;4993102;28;20588;-58
2022/10/24 00:41:01;;;;;;;2.00;1.90;;;;;;;;;;4989982;28;20224;-58
2022/10/24 00:43:27;;;;;;;2.10;2.00;;;;;;;;;;4986905;28;20245;-57
2022/10/24 00:45:54;;;;;;;2.23;2.13;;;;;;;;;;4983784;28;20705;-57
2022/10/24 00:48:21;;;;;;;2.63;2.53;;;;;;;;;;4986105;28;20216;-59
2022/10/24 00:50:48;;;;;;;1.70;1.67;;;;;;;;;;4965185;28;20231;-57
2022/10/24 00:53:14;;;;;;;1.60;1.60;;;;;;;;;;4988974;28;20229;-58
2022/10/24 00:55:40;;;;;;;1.50;1.50;;;;;;;;;;4991052;28;20259;-58
2022/10/24 00:58:06;;;;;;;1.60;1.60;;;;;;;;;;4984527;28;20228;-58
2022/10/24 01:00:32;;;;;;;1.60;1.60;;;;;;;;;;4980562;28;20227;-57
2022/10/24 01:02:58;;;;;;;1.63;1.63;;;;;;;;;;4983964;28;20295;-58
2022/10/24 01:05:26;;;;;;;1.50;1.50;;;;;;;;;;4994211;28;20480;-57
2022/10/24 01:07:55;;;;;;;1.30;1.30;;;;;;;;;;4968342;28;20229;-57
2022/10/24 01:10:30;;;;;;;1.50;1.50;;;;;;;;;;4997092;28;20670;-58
2022/10/24 01:13:07;;;;;;;1.90;1.80;;;;;;;;;;4983487;28;20235;-59
2022/10/24 01:15:51;;;;;;;1.57;1.57;;;;;;;;;;4971749;28;20235;-58
2022/10/24 01:18:22;;;;;;;1.50;1.50;;;;;;;;;;4987489;28;20344;-58
2022/10/24 01:20:51;;;;;;;1.60;1.60;;;;;;;;;;4985445;28;20232;-57
2022/10/24 01:23:23;;;;;;;1.70;1.70;;;;;;;;;;4982986;28;20348;-56
2022/10/24 01:25:55;;;;;;;1.60;1.60;;;;;;;;;;4969926;28;20311;-57
2022/10/24 01:28:21;;;;;;;2.03;1.93;;;;;;;;;;4993090;28;20676;-58
2022/10/24 01:30:48;;;;;;;1.90;1.80;;;;;;;;;;4963486;28;20409;-58
2022/10/24 01:33:29;;;;;;;1.73;1.70;;;;;;;;;;4968505;28;20253;-59
2022/10/24 01:36:00;;;;;;;1.50;1.50;;;;;;;;;;4966587;28;20233;-59
2022/10/24 01:38:25;;;;;;;1.40;1.40;;;;;;;;;;4990609;28;20229;-58
2022/10/24 01:40:53;;;;;;;1.40;1.40;;;;;;;;;;4999437;28;20276;-59
2022/10/24 01:43:21;;;;;;;1.40;1.40;;;;;;;;;;4996630;28;20638;-56
2022/10/24 01:45:48;;;;;;;1.60;1.60;;;;;;;;;;4988508;28;20720;-57
2022/10/24 01:48:15;;;;;;;1.50;1.50;;;;;;;;;;4985236;28;20231;-59
2022/10/24 01:50:41;;;;;;;1.20;1.20;;;;;;;;;;4964717;28;20279;-58
2022/10/24 01:53:07;;;;;;;1.50;1.50;;;;;;;;;;4978808;28;20265;-58
2022/10/24 01:55:33;;;;;;;1.57;1.57;;;;;;;;;;4989405;28;20332;-58
2022/10/24 01:57:59;;;;;;;1.57;1.57;;;;;;;;;;4992726;28;20701;-58
2022/10/24 02:00:25;;;;;;;1.57;1.57;;;;;;;;;;4997173;28;20368;-57
2022/10/24 02:03:01;;;;;;;1.30;1.30;;;;;;;;;;4992295;28;20233;-58
2022/10/24 02:05:32;;;;;;;1.30;1.30;;;;;;;;;;4955006;28;20255;-57
2022/10/24 02:08:00;;;;;;;1.30;1.30;;;;;;;;;;4991352;28;20586;-57
2022/10/24 02:10:28;;;;;;;1.40;1.40;;;;;;;;;;4977052;28;20232;-58
2022/10/24 02:12:56;;;;;;;1.40;1.40;;;;;;;;;;4996960;28;20217;-57
2022/10/24 02:15:24;;;;;;;1.30;1.30;;;;;;;;;;4982140;28;20224;-57
2022/10/24 02:17:50;;;;;;;1.30;1.30;;;;;;;;;;4972808;28;20217;-57
2022/10/24 02:20:16;;;;;;;1.40;1.40;;;;;;;;;;4987976;28;20233;-57
2022/10/24 02:22:46;;;;;;;1.20;1.20;;;;;;;;;;5000547;28;20244;-59
2022/10/24 02:25:15;;;;;;;1.47;1.47;;;;;;;;;;4994224;28;20687;-57
2022/10/24 02:27:42;;;;;;;1.50;1.50;;;;;;;;;;4990648;28;26880;-58
2022/10/24 02:30:09;;;;;;;1.20;1.20;;;;;;;;;;4995746;28;20259;-57
2022/10/24 02:32:37;;;;;;;1.40;1.40;;;;;;;;;;4999197;28;20245;-58
2022/10/24 02:35:03;;;;;;;1.30;1.30;;;;;;;;;;4973205;28;20352;-59
2022/10/24 02:37:29;;;;;;;1.57;1.57;;;;;;;;;;4967934;28;20812;-58
2022/10/24 02:39:55;;;;;;;1.33;1.33;;;;;;;;;;5003739;28;20231;-58
2022/10/24 02:42:22;;;;;;;1.60;1.60;;;;;;;;;;4962317;28;20704;-58
2022/10/24 02:44:48;;;;;;;1.40;1.40;;;;;;;;;;5000949;28;20225;-58
2022/10/24 02:47:14;;;;;;;1.10;1.10;;;;;;;;;;4962492;28;20596;-58
2022/10/24 02:49:39;;;;;;;1.40;1.40;;;;;;;;;;4963585;28;20727;-57
2022/10/24 02:52:05;;;;;;;1.20;1.20;;;;;;;;;;4966742;28;20709;-57
2022/10/24 02:54:31;;;;;;;1.10;1.10;;;;;;;;;;4987249;28;20237;-59
2022/10/24 02:56:59;;;;;;;1.40;1.40;;;;;;;;;;4983107;28;20607;-58
2022/10/24 02:59:25;;;;;;;1.20;1.20;;;;;;;;;;4966286;28;20227;-58
2022/10/24 03:01:51;;;;;;;1.30;1.30;;;;;;;;;;4986216;28;20598;-57
2022/10/24 03:04:17;;;;;;;1.20;1.20;;;;;;;;;;4988951;28;20227;-57
2022/10/24 03:06:43;;;;;;;1.50;1.50;;;;;;;;;;4985291;28;20229;-58
2022/10/24 03:09:08;;;;;;;1.40;1.40;;;;;;;;;;4992073;28;20258;-59
2022/10/24 03:11:34;;;;;;;1.40;1.40;;;;;;;;;;4991176;28;20352;-59
2022/10/24 03:14:00;;;;;;;1.50;1.50;;;;;;;;;;4989105;28;20229;-58
2022/10/24 03:16:27;;;;;;;1.40;1.40;;;;;;;;;;4984413;28;20229;-57
2022/10/24 03:18:53;;;;;;;1.57;1.57;;;;;;;;;;4986108;28;20228;-58
2022/10/24 03:21:19;;;;;;;1.33;1.33;;;;;;;;;;4989589;28;20224;-58
2022/10/24 03:23:45;;;;;;;1.60;1.60;;;;;;;;;;4988457;28;20791;-59
2022/10/24 03:26:11;;;;;;;1.40;1.40;;;;;;;;;;4988862;28;20577;-57
2022/10/24 03:28:37;;;;;;;1.60;1.60;;;;;;;;;;4990853;28;20720;-57
2022/10/24 03:31:03;;;;;;;1.30;1.30;;;;;;;;;;4996078;28;20229;-59
2022/10/24 03:33:29;;;;;;;1.20;1.20;;;;;;;;;;4997613;28;20653;-59
2022/10/24 03:35:55;;;;;;;1.50;1.50;;;;;;;;;;4980757;28;22029;-58
2022/10/24 03:38:21;;;;;;;1.50;1.50;;;;;;;;;;4993185;28;20316;-58
2022/10/24 03:40:47;;;;;;;1.20;1.20;;;;;;;;;;4984426;28;20343;-59
2022/10/24 03:43:13;;;;;;;1.20;1.20;;;;;;;;;;4986823;28;20771;-58
2022/10/24 03:45:39;;;;;;;1.20;1.20;;;;;;;;;;4994010;28;20228;-59
2022/10/24 03:48:05;;;;;;;1.30;1.30;;;;;;;;;;4990434;28;20236;-58
2022/10/24 03:50:31;;;;;;;1.40;1.40;;;;;;;;;;4980811;28;20291;-57
2022/10/24 03:52:57;;;;;;;1.50;1.50;;;;;;;;;;4982847;28;20228;-58
2022/10/24 03:55:23;;;;;;;1.40;1.40;;;;;;;;;;4983408;28;21267;-58
2022/10/24 03:57:49;;;;;;;1.30;1.30;;;;;;;;;;4988223;28;20228;-57
2022/10/24 04:00:17;;;;;;;1.30;1.30;;;;;;;;;;4989692;28;21404;-59
2022/10/24 04:02:43;;;;;;;1.50;1.50;;;;;;;;;;4989327;28;20272;-59
2022/10/24 04:05:09;;;;;;;1.50;1.50;;;;;;;;;;4982742;28;21709;-58
2022/10/24 04:07:35;;;;;;;1.40;1.40;;;;;;;;;;4989772;28;20677;-58
2022/10/24 04:10:01;;;;;;;1.50;1.50;;;;;;;;;;4991546;28;20303;-59
2022/10/24 04:12:27;;;;;;;1.50;1.50;;;;;;;;;;4987374;28;20229;-57
2022/10/24 04:14:53;;;;;;;1.40;1.40;;;;;;;;;;4967628;28;20230;-58
2022/10/24 04:17:19;;;;;;;2.00;1.90;;;;;;;;;;4985693;28;20335;-57
2022/10/24 04:19:45;;;;;;;1.90;1.80;;;;;;;;;;4966210;28;20230;-57
2022/10/24 04:22:10;;;;;;;1.50;1.50;;;;;;;;;;4976841;28;20248;-57
2022/10/24 04:24:38;;;;;;;1.33;1.33;;;;;;;;;;4985233;28;20269;-56
2022/10/24 04:27:04;;;;;;;1.10;1.10;;;;;;;;;;4977812;28;20662;-58
2022/10/24 04:29:30;;;;;;;1.40;1.40;;;;;;;;;;4998446;28;20226;-58
2022/10/24 04:31:56;;;;;;;1.53;1.53;;;;;;;;;;4976743;28;20216;-55
2022/10/24 04:34:22;;;;;;;1.50;1.50;;;;;;;;;;4961334;28;20276;-58
2022/10/24 04:36:47;;;;;;;1.90;1.80;;;;;;;;;;4975577;28;20222;-56
2022/10/24 04:39:13;;;;;;;1.63;1.63;;;;;;;;;;4971798;28;20834;-59
2022/10/24 04:41:39;;;;;;;1.60;1.60;;;;;;;;;;4982567;28;21262;-59
2022/10/24 04:44:05;;;;;;;1.50;1.50;;;;;;;;;;4979766;28;20228;-57
2022/10/24 04:46:31;;;;;;;1.60;1.60;;;;;;;;;;4992440;28;20217;-59
2022/10/24 04:48:57;;;;;;;1.60;1.60;;;;;;;;;;4996616;28;20315;-56
2022/10/24 04:51:23;;;;;;;1.60;1.60;;;;;;;;;;4978186;28;20229;-56
2022/10/24 04:53:49;;;;;;;1.90;1.80;;;;;;;;;;4981593;28;20316;-58
2022/10/24 04:56:15;;;;;;;1.63;1.53;;;;;;;;;;4973835;28;20275;-57
2022/10/24 04:58:41;;;;;;;1.70;1.70;;;;;;;;;;4972535;28;20221;-58
2022/10/24 05:01:07;;;;;;;1.50;1.50;;;;;;;;;;4980703;28;20233;-58
2022/10/24 05:03:33;;;;;;;1.40;1.40;;;;;;;;;;4986612;28;20224;-58
2022/10/24 05:05:59;;;;;;;1.60;1.60;;;;;;;;;;4982903;28;20306;-56
2022/10/24 05:08:26;;;;;;;1.50;1.50;;;;;;;;;;4983601;28;20673;-58
2022/10/24 05:10:52;;;;;;;2.00;1.90;;;;;;;;;;4978188;28;20229;-58
2022/10/24 05:13:18;;;;;;;1.60;1.60;;;;;;;;;;4982995;28;20667;-59
2022/10/24 05:15:44;;;;;;;1.73;1.70;;;;;;;;;;4998150;28;20538;-58
2022/10/24 05:18:10;;;;;;;1.50;1.50;;;;;;;;;;4990639;28;20220;-60
2022/10/24 05:20:36;;;;;;;1.77;1.70;;;;;;;;;;4993214;28;20229;-59
2022/10/24 05:23:02;;;;;;;1.30;1.30;;;;;;;;;;4998256;28;20864;-58
2022/10/24 05:25:28;;;;;;;1.30;1.30;;;;;;;;;;4998209;28;20235;-58
2022/10/24 05:27:54;;;;;;;1.40;1.40;;;;;;;;;;4984579;28;20232;-60
2022/10/24 05:30:19;;;;;;;1.30;1.30;;;;;;;;;;4996325;28;20228;-57
2022/10/24 05:32:45;;;;;;;1.50;1.50;;;;;;;;;;4975266;28;20241;-58
2022/10/24 05:35:11;;;;;;;1.50;1.50;;;;;;;;;;5005071;28;20283;-59
2022/10/24 05:37:37;;;;;;;1.60;1.60;;;;;;;;;;4990212;28;20295;-58
2022/10/24 05:40:04;;;;;;;1.53;1.53;;;;;;;;;;5005881;28;20219;-60
2022/10/24 05:42:30;;;;;;;1.90;1.80;;;;;;;;;;5010764;28;20236;-59
2022/10/24 05:44:56;;;;;;;2.30;2.20;;;;;;;;;;4994870;28;20742;-59
2022/10/24 05:47:22;;;;;;;2.00;1.90;;;;;;;;;;5007627;28;20654;-59
2022/10/24 05:49:48;;;;;;;2.13;2.03;;;;;;;;;;5004233;28;20308;-58
2022/10/24 05:52:14;;;;;;;2.33;2.23;;;;;;;;;;5003344;28;20326;-59
2022/10/24 05:54:40;;;;;;;2.23;2.13;;;;;;;;;;5004330;28;20233;-59
2022/10/24 05:57:06;;;;;;;2.07;1.97;;;;;;;;;;5007251;28;20228;-58
2022/10/24 05:59:32;;;;;;;1.87;1.77;;;;;;;;;;5005589;28;20225;-59
2022/10/24 06:01:58;;;;;;;2.20;2.10;;;;;;;;;;5006934;28;20806;-60
2022/10/24 06:04:24;;;;;;;2.20;2.10;;;;;;;;;;5006024;28;20228;-58
2022/10/24 06:06:50;;;;;;;2.10;2.00;;;;;;;;;;5002540;28;20479;-58
2022/10/24 06:09:16;;;;;;;2.40;2.30;;;;;;;;;;5011306;28;20319;-59
2022/10/24 06:11:42;;;;;;;1.50;1.50;;;;;;;;;;5007347;28;20252;-59
2022/10/24 06:14:08;;;;;;;1.50;1.50;;;;;;;;;;5002501;28;20243;-60
2022/10/24 06:16:34;;;;;;;1.50;1.50;;;;;;;;;;4997348;28;20226;-58
2022/10/24 06:19:00;;;;;;;1.63;1.63;;;;;;;;;;5008556;28;20232;-58
2022/10/24 06:21:26;;;;;;;1.50;1.50;;;;;;;;;;4999672;28;20762;-60
2022/10/24 06:23:52;;;;;;;1.30;1.30;;;;;;;;;;5009754;28;20217;-60
2022/10/24 06:26:18;;;;;;;1.13;1.13;;;;;;;;;;5005571;28;20221;-60
2022/10/24 06:28:44;;;;;;;1.30;1.30;;;;;;;;;;4996172;28;20587;-59
2022/10/24 06:31:11;;;;;;;1.40;1.40;;;;;;;;;;5003787;28;20646;-60
2022/10/24 06:33:37;;;;;;;1.30;1.30;;;;;;;;;;5001642;28;21241;-59
2022/10/24 06:36:04;;;;;;;1.50;1.50;;;;;;;;;;4999569;28;21433;-60
2022/10/24 06:38:30;;;;;;;1.20;1.20;;;;;;;;;;5001275;28;20284;-59
2022/10/24 06:40:56;;;;;;;1.20;1.20;;;;;;;;;;5007015;28;20228;-59
2022/10/24 06:43:22;;;;;;;1.30;1.30;;;;;;;;;;5006007;28;20761;-58
2022/10/24 06:45:48;;;;;;;1.47;1.47;;;;;;;;;;5000574;28;20225;-60
2022/10/24 06:48:14;;;;;;;1.30;1.30;;;;;;;;;;5007408;28;20225;-59
2022/10/24 06:50:40;;;;;;;1.30;1.30;;;;;;;;;;5006173;28;20225;-60
2022/10/24 06:53:06;;;;;;;1.50;1.50;;;;;;;;;;5010758;28;20227;-60
2022/10/24 06:55:32;;;;;;;1.20;1.20;;;;;;;;;;5004705;28;20283;-60
2022/10/24 06:57:58;;;;;;;1.53;1.53;;;;;;;;;;5002603;28;20312;-60
2022/10/24 07:00:24;;;;;;;1.30;1.30;;;;;;;;;;5005749;28;20217;-61
2022/10/24 07:02:50;;;;;;;1.10;1.10;;;;;;;;;;5000293;28;20225;-59
2022/10/24 07:05:16;;;;;;;1.40;1.40;;;;;;;;;;5002663;28;20295;-60
2022/10/24 07:07:42;;;;;;;1.30;1.30;;;;;;;;;;5000815;28;20233;-60
2022/10/24 07:10:09;;;;;;;1.10;1.10;;;;;;;;;;5006291;28;20217;-58
2022/10/24 07:12:35;;;;;;;1.40;1.40;;;;;;;;;;4978572;28;20586;-60
2022/10/24 07:15:02;;;;;;;1.27;1.27;;;;;;;;;;5003796;28;20236;-60
2022/10/24 07:17:28;;;;;;;1.50;1.50;;;;;;;;;;4999016;28;20224;-60
2022/10/24 07:19:55;;;;;;;1.30;1.30;;;;;;;;;;5000695;28;20567;-59
2022/10/24 07:22:21;;;;;;;1.37;1.37;;;;;;;;;;5006495;28;20221;-59
2022/10/24 07:24:51;;;;;;;1.20;1.20;;;;;;;;;;5002264;28;20280;-61
2022/10/24 07:27:17;;;;;;;1.30;1.30;;;;;;;;;;5002282;28;20229;-59
2022/10/24 07:29:43;;;;;;;1.30;1.30;;;;;;;;;;5004412;28;20225;-61
2022/10/24 07:32:10;;;;;;;1.10;1.10;;;;;;;;;;4998210;28;20233;-60
2022/10/24 07:34:35;;;;;;;1.40;1.40;;;;;;;;;;5000524;28;20670;-60
2022/10/24 07:37:03;;;;;;;1.40;1.40;;;;;;;;;;5003335;28;20304;-60
2022/10/24 07:39:29;;;;;;;1.40;1.40;;;;;;;;;;4998965;28;20218;-59
2022/10/24 07:41:55;;;;;;;1.20;1.20;;;;;;;;;;5000912;28;20229;-58
2022/10/24 07:44:21;;;;;;;1.47;1.47;;;;;;;;;;5001600;28;20225;-60
2022/10/24 07:46:46;;;;;;;1.50;1.50;;;;;;;;;;5003118;28;20223;-59
2022/10/24 07:49:12;;;;;;;1.50;1.50;;;;;;;;;;5000287;28;20226;-59
2022/10/24 07:51:40;;;;;;;1.47;1.47;;;;;;;;;;4997543;28;20326;-58
2022/10/24 07:54:05;;;;;;;1.30;1.30;;;;;;;;;;4989507;28;20669;-60
2022/10/24 07:56:31;;;;;;;1.30;1.30;;;;;;;;;;4998878;28;20251;-58
2022/10/24 07:58:59;;;;;;;1.40;1.40;;;;;;;;;;5001736;28;20227;-58
2022/10/24 08:01:25;;;;;;;1.60;1.60;;;;;;;;;;5001005;28;20233;-59
2022/10/24 08:03:51;;;;;;;1.50;1.50;;;;;;;;;;5001400;28;20592;-60
2022/10/24 08:06:18;;;;;;;1.40;1.40;;;;;;;;;;4999222;28;20232;-58
2022/10/24 08:08:45;;;;;;;1.27;1.27;;;;;;;;;;5003397;28;20229;-58
2022/10/24 08:11:11;;;;;;;1.50;1.50;;;;;;;;;;4995762;28;20230;-60
2022/10/24 08:13:37;;;;;;;1.20;1.20;;;;;;;;;;4996481;28;20244;-58
2022/10/24 08:16:07;;;;;;;1.30;1.30;;;;;;;;;;5005124;28;20588;-60
2022/10/24 08:18:33;;;;;;;1.20;1.20;;;;;;;;;;5002816;28;20738;-58
2022/10/24 08:20:59;;;;;;;1.83;1.73;;;;;;;;;;5002175;28;21834;-59
2022/10/24 08:23:25;;;;;;;1.30;1.30;;;;;;;;;;4994073;28;20707;-58
2022/10/24 08:25:51;;;;;;;1.20;1.20;;;;;;;;;;4986345;28;20224;-60
2022/10/24 08:28:17;;;;;;;1.30;1.30;;;;;;;;;;5002001;28;21603;-60
2022/10/24 08:30:43;;;;;;;1.10;1.10;;;;;;;;;;4998426;28;20627;-60
2022/10/24 08:33:09;;;;;;;1.43;1.43;;;;;;;;;;4992725;28;20689;-59
2022/10/24 08:35:34;;;;;;;1.30;1.30;;;;;;;;;;5003496;28;20689;-60
2022/10/24 08:38:00;;;;;;;1.27;1.27;;;;;;;;;;5004263;28;20220;-60
2022/10/24 08:40:27;;;;;;;1.10;1.10;;;;;;;;;;5004168;28;20391;-60
2022/10/24 08:42:53;;;;;;;1.00;1.00;;;;;;;;;;5002669;28;20240;-59
2022/10/24 08:45:22;;;;;;;1.10;1.10;;;;;;;;;;4979792;28;20216;-60
2022/10/24 08:47:57;;;;;;;1.97;1.87;;;;;;;;;;4998126;28;20639;-60
2022/10/24 08:50:28;;;;;;;1.53;1.53;;;;;;;;;;4999569;28;20231;-59
2022/10/24 08:53:10;;;;;;;1.20;1.20;;;;;;;;;;5000896;28;20228;-60
2022/10/24 08:55:43;;;;;;;1.10;1.10;;;;;;;;;;5003738;28;20232;-59
2022/10/24 08:58:16;;;;;;;1.20;1.20;;;;;;;;;;4995642;28;20220;-61
2022/10/24 09:00:43;;;;;;;1.10;1.10;;;;;;;;;;4980465;28;20624;-61
2022/10/24 09:03:27;;;;;;;1.20;1.20;;;;;;;;;;4972411;28;20712;-61
2022/10/24 09:05:54;;;;;;;1.30;1.30;;;;;;;;;;4976026;28;20693;-59
2022/10/24 09:08:26;;;;;;;1.27;1.27;;;;;;;;;;4976822;28;20364;-60
2022/10/24 09:10:57;;;;;;;1.60;1.60;;;;;;;;;;4975900;28;20324;-61
2022/10/24 09:13:23;;;;;;;1.70;1.70;;;;;;;;;;4986886;28;20233;-60
2022/10/24 09:15:49;;;;;;;1.50;1.50;;;;;;;;;;5001437;28;20236;-60
2022/10/24 09:18:25;;;;;;;1.73;1.70;;;;;;;;;;5001448;28;20225;-60
2022/10/24 09:20:51;;;;;;;1.50;1.50;;;;;;;;;;4979764;28;20283;-60
2022/10/24 09:23:17;;;;;;;1.30;1.30;;;;;;;;;;4997746;28;20953;-61
2022/10/24 09:25:44;;;;;;;1.73;1.63;;;;;;;;;;4988986;28;20802;-61
2022/10/24 09:28:10;;;;;;;1.80;1.70;;;;;;;;;;4980789;28;20638;-61
2022/10/24 09:30:36;;;;;;;1.30;1.30;;;;;;;;;;4997363;28;20244;-61
2022/10/24 09:33:04;;;;;;;1.50;1.50;;;;;;;;;;4997435;28;20794;-61
2022/10/24 09:35:34;;;;;;;1.40;1.40;;;;;;;;;;4995525;28;20228;-59
2022/10/24 09:38:20;;;;;;;1.40;1.40;;;;;;;;;;4981999;28;20604;-59
2022/10/24 09:40:52;;;;;;;1.60;1.60;;;;;;;;;;5003012;28;20607;-59
2022/10/24 09:43:22;;;;;;;1.20;1.20;;;;;;;;;;4977513;28;20225;-57
2022/10/24 09:45:51;;;;;;;1.50;1.50;;;;;;;;;;4999667;28;20241;-60
2022/10/24 09:48:28;;;;;;;1.20;1.20;;;;;;;;;;5000206;28;20761;-58
2022/10/24 09:50:54;;;;;;;1.40;1.40;;;;;;;;;;5001066;28;20225;-58
2022/10/24 09:53:27;;;;;;;1.63;1.63;;;;;;;;;;5000557;28;20268;-60
2022/10/24 09:55:54;;;;;;;1.30;1.30;;;;;;;;;;4997528;28;20970;-58
2022/10/24 09:58:21;;;;;;;1.33;1.33;;;;;;;;;;5005680;28;20205;-59
2022/10/24 10:00:59;;;;;;;1.60;1.60;;;;;;;;;;4975140;28;20666;-59
2022/10/24 10:03:25;;;;;;;1.37;1.37;;;;;;;;;;4997986;28;20688;-59
2022/10/24 10:05:58;;;;;;;1.50;1.50;;;;;;;;;;4999251;28;20228;-60
2022/10/24 10:08:25;;;;;;;1.20;1.20;;;;;;;;;;5005132;28;20259;-61
2022/10/24 10:11:01;;;;;;;1.40;1.40;;;;;;;;;;4997130;28;20688;-61
2022/10/24 10:13:27;;;;;;;1.40;1.40;;;;;;;;;;5001140;28;20668;-61
2022/10/24 10:15:59;;;;;;;1.40;1.40;;;;;;;;;;4999935;28;20249;-59
2022/10/24 10:18:26;;;;;;;1.47;1.47;;;;;;;;;;5004420;28;20295;-60
2022/10/24 10:20:59;;;;;;;1.50;1.50;;;;;;;;;;5005329;28;20261;-58
2022/10/24 10:23:25;;;;;;;1.50;1.50;;;;;;;;;;4974835;28;20213;-60
2022/10/24 10:26:04;;;;;;;1.60;1.60;;;;;;;;;;5002450;28;20228;-60
2022/10/24 10:28:29;;;;;;;1.60;1.60;;;;;;;;;;4989033;28;20325;-60
2022/10/24 10:30:57;;;;;;;1.50;1.50;;;;;;;;;;5001353;28;20225;-61
2022/10/24 10:33:23;;;;;;;1.40;1.40;;;;;;;;;;4994773;28;20306;-59
2022/10/24 10:35:52;;;;;;;1.50;1.50;;;;;;;;;;5002453;28;20241;-61
2022/10/24 10:38:37;;;;;;;1.50;1.50;;;;;;;;;;4991523;28;20602;-58
2022/10/24 10:41:05;;;;;;;1.80;1.70;;;;;;;;;;4995422;28;20315;-59
2022/10/24 10:43:37;;;;;;;1.87;1.77;;;;;;;;;;4985124;28;20223;-57
2022/10/24 10:46:15;;;;;;;1.57;1.57;;;;;;;;;;5000746;28;20239;-57
2022/10/24 10:48:54;;;;;;;1.90;1.80;;;;;;;;;;5003053;28;20386;-59
2022/10/24 10:51:29;;;;;;;2.00;1.90;;;;;;;;;;5009643;28;20220;-59
2022/10/24 10:54:05;;;;;;;2.00;1.90;;;;;;;;;;4993907;28;20588;-59
2022/10/24 10:56:34;;;;;;;1.30;1.30;;;;;;;;;;4986551;28;20228;-59
2022/10/24 10:59:00;;;;;;;1.50;1.50;;;;;;;;;;5012548;28;20390;-58
2022/10/24 11:01:30;;;;;;;1.10;1.10;;;;;;;;;;4998875;28;21344;-59
2022/10/24 11:04:02;;;;;;;1.20;1.20;;;;;;;;;;4993613;28;20555;-59
2022/10/24 11:06:31;;;;;;;1.50;1.50;;;;;;;;;;4983366;28;20246;-59
2022/10/24 11:09:08;;;;;;;1.30;1.30;;;;;;;;;;5005817;28;20229;-59
2022/10/24 11:11:34;;;;;;;1.30;1.30;;;;;;;;;;4984526;28;20237;-59
2022/10/24 11:14:00;;;;;;;1.30;1.30;;;;;;;;;;4994259;28;20237;-59
2022/10/24 11:16:27;;;;;;;1.30;1.30;;;;;;;;;;5010367;28;20271;-58
2022/10/24 11:18:54;;;;;;;1.20;1.20;;;;;;;;;;5006120;28;20707;-59
2022/10/24 11:21:21;;;;;;;1.27;1.27;;;;;;;;;;4986542;28;20231;-58
2022/10/24 11:23:54;;;;;;;1.80;1.70;;;;;;;;;;4979672;28;20225;-59
2022/10/24 11:26:26;;;;;;;1.10;1.10;;;;;;;;;;4983090;28;20261;-59
2022/10/24 11:28:56;;;;;;;1.10;1.10;;;;;;;;;;5006202;28;20225;-59
2022/10/24 11:31:23;;;;;;;1.10;1.10;;;;;;;;;;4973665;28;20260;-59
2022/10/24 11:33:53;;;;;;;1.60;1.60;;;;;;;;;;5001785;28;20239;-59
2022/10/24 11:36:28;;;;;;;1.50;1.50;;;;;;;;;;5001673;28;20308;-59
2022/10/24 11:39:11;;;;;;;1.50;1.50;;;;;;;;;;5003054;28;20232;-59
2022/10/24 11:41:37;;;;;;;1.40;1.40;;;;;;;;;;4981131;28;22534;-59
2022/10/24 11:44:13;;;;;;;1.50;1.50;;;;;;;;;;4983714;28;20244;-59
2022/10/24 11:46:40;;;;;;;1.83;1.73;;;;;;;;;;4982197;28;20801;-59
2022/10/24 11:49:12;;;;;;;1.40;1.40;;;;;;;;;;4957610;28;20225;-59
2022/10/24 11:51:40;;;;;;;1.73;1.67;;;;;;;;;;4959094;28;20712;-59
2022/10/24 11:54:16;;;;;;;1.30;1.30;;;;;;;;;;4985078;28;20661;-58
2022/10/24 11:56:47;;;;;;;1.40;1.40;;;;;;;;;;4989451;28;20826;-59
2022/10/24 11:59:15;;;;;;;1.40;1.40;;;;;;;;;;4954173;28;20233;-59
2022/10/24 12:01:44;;;;;;;1.30;1.30;;;;;;;;;;4979119;28;20221;-58
2022/10/24 12:04:33;;;;;;;1.30;1.30;;;;;;;;;;4973618;28;20237;-59
2022/10/24 12:07:05;;;;;;;1.40;1.40;;;;;;;;;;4970512;28;20735;-59
2022/10/24 12:09:50;;;;;;;1.60;1.60;;;;;;;;;;4974380;28;20655;-59
2022/10/24 12:12:22;;;;;;;1.60;1.60;;;;;;;;;;4982399;28;20229;-59
2022/10/24 12:15:07;;;;;;;1.90;1.80;;;;;;;;;;4966011;28;20254;-59
2022/10/24 12:17:52;;;;;;;1.37;1.37;;;;;;;;;;4994213;28;20244;-59
2022/10/24 12:20:19;;;;;;;1.20;1.20;;;;;;;;;;4963138;28;20709;-59
2022/10/24 12:22:45;;;;;;;1.10;1.10;;;;;;;;;;4966564;28;20230;-59
2022/10/24 12:25:47;;;;;;;1.37;1.37;;;;;;;;;;4984409;28;20656;-59
2022/10/24 12:28:19;;;;;;;1.20;1.20;;;;;;;;;;4912299;29;21130;-59
2022/10/24 12:31:05;;;;;;;1.30;1.30;;;;;;;;;;4947228;28;20337;-59
2022/10/24 12:33:31;;;;;;;1.40;1.40;;;;;;;;;;4988785;28;20225;-59
2022/10/24 12:35:57;;;;;;;1.30;1.30;;;;;;;;;;4959508;28;20225;-59
2022/10/24 12:38:26;;;;;;;1.30;1.30;;;;;;;;;;4962063;28;20289;-59
2022/10/24 12:41:04;;;;;;;1.30;1.30;;;;;;;;;;4990518;28;20233;-59
2022/10/24 12:43:37;;;;;;;1.30;1.30;;;;;;;;;;4958134;28;20275;-60
2022/10/24 12:46:23;;;;;;;1.20;1.20;;;;;;;;;;4982860;28;20227;-59
2022/10/24 12:48:58;;;;;;;1.30;1.30;;;;;;;;;;4964588;28;20325;-59
2022/10/24 12:51:26;;;;;;;1.20;1.20;;;;;;;;;;4971711;28;20257;-60
2022/10/24 12:54:04;;;;;;;1.20;1.20;;;;;;;;;;4976071;28;20297;-59
2022/10/24 12:56:30;;;;;;;1.20;1.20;;;;;;;;;;4977843;28;20233;-59
2022/10/24 12:59:00;;;;;;;1.30;1.30;;;;;;;;;;4980654;28;20225;-59
2022/10/24 13:01:28;;;;;;;1.30;1.30;;;;;;;;;;4956720;28;20327;-59
2022/10/24 13:03:57;;;;;;;1.20;1.20;;;;;;;;;;4975693;28;20226;-59
2022/10/24 13:06:42;;;;;;;1.20;1.20;;;;;;;;;;4958125;28;20262;-60
2022/10/24 13:09:20;;;;;;;1.30;1.30;;;;;;;;;;4975257;28;20342;-59
2022/10/24 13:11:53;;;;;;;1.13;1.13;;;;;;;;;;4976493;28;20225;-59
2022/10/24 13:14:19;;;;;;;1.20;1.20;;;;;;;;;;4972807;28;20320;-59
2022/10/24 13:16:57;;;;;;;1.30;1.30;;;;;;;;;;4975347;28;20445;-59
2022/10/24 13:19:23;;;;;;;1.23;1.23;;;;;;;;;;4986816;28;20221;-60
2022/10/24 13:21:50;;;;;;;1.30;1.30;;;;;;;;;;4976192;28;20245;-59
2022/10/24 13:24:17;;;;;;;1.20;1.20;;;;;;;;;;4975267;28;20901;-59
2022/10/24 13:26:52;;;;;;;1.20;1.20;;;;;;;;;;4980789;28;20217;-59
2022/10/24 13:29:21;;;;;;;1.37;1.37;;;;;;;;;;4981977;28;20299;-60
2022/10/24 13:31:47;;;;;;;1.30;1.30;;;;;;;;;;4972355;28;21135;-60
2022/10/24 13:34:23;;;;;;;1.20;1.20;;;;;;;;;;4977162;28;20324;-59
2022/10/24 13:37:12;;;;;;;1.40;1.40;;;;;;;;;;4975125;28;20244;-59
2022/10/24 13:39:39;;;;;;;1.20;1.20;;;;;;;;;;4968574;28;20790;-59
2022/10/24 13:42:18;;;;;;;1.20;1.20;;;;;;;;;;4934486;28;20892;-59
2022/10/24 13:44:46;;;;;;;1.10;1.10;;;;;;;;;;4977635;28;20288;-59
2022/10/24 13:47:28;;;;;;;1.30;1.30;;;;;;;;;;4945112;28;20597;-59
2022/10/24 13:49:55;;;;;;;1.20;1.20;;;;;;;;;;4949730;28;20230;-59
2022/10/24 13:52:32;;;;;;;1.10;1.10;;;;;;;;;;4953962;28;20253;-59
2022/10/24 13:55:13;;;;;;;1.10;1.10;;;;;;;;;;4959070;28;20237;-59
2022/10/24 13:57:50;;;;;;;1.10;1.10;;;;;;;;;;4955746;28;20281;-59
2022/10/24 14:00:18;;;;;;;1.10;1.10;;;;;;;;;;4960100;28;20225;-59
2022/10/24 14:02:44;;;;;;;1.27;1.27;;;;;;;;;;4952506;28;20230;-58
2022/10/24 14:05:20;;;;;;;1.20;1.20;;;;;;;;;;4985212;28;20254;-59
2022/10/24 14:07:46;;;;;;;1.10;1.10;;;;;;;;;;4983808;28;20969;-58
2022/10/24 14:10:13;;;;;;;1.00;1.00;;;;;;;;;;4980450;28;20240;-58
2022/10/24 14:12:39;;;;;;;1.10;1.10;;;;;;;;;;4963830;28;20223;-58
2022/10/24 14:15:06;;;;;;;1.10;1.10;;;;;;;;;;4962181;28;20250;-59
2022/10/24 14:17:33;;;;;;;1.33;1.33;;;;;;;;;;4983582;28;20304;-58
2022/10/24 14:20:00;;;;;;;1.10;1.10;;;;;;;;;;4977154;28;20221;-59
2022/10/24 14:22:27;;;;;;;1.30;1.30;;;;;;;;;;4984563;28;20213;-58
2022/10/24 14:24:53;;;;;;;1.10;1.10;;;;;;;;;;4985388;28;20237;-58
2022/10/24 14:27:19;;;;;;;1.10;1.10;;;;;;;;;;4982330;28;20237;-58
2022/10/24 14:30:12;;;;;;;1.20;1.20;;;;;;;;;;4974723;28;20711;-58
2022/10/24 14:32:38;;;;;;;1.10;1.10;;;;;;;;;;4973284;28;20245;-59
2022/10/24 14:35:04;;;;;;;1.20;1.20;;;;;;;;;;4978584;28;20246;-58
2022/10/24 14:37:31;;;;;;;1.20;1.20;;;;;;;;;;4969991;28;20690;-58
2022/10/24 14:39:57;;;;;;;1.10;1.10;;;;;;;;;;4978259;28;20847;-58
2022/10/24 14:42:23;;;;;;;1.00;1.00;;;;;;;;;;4955606;28;20701;-58
2022/10/24 14:44:50;;;;;;;1.17;1.17;;;;;;;;;;4975622;28;20272;-58
2022/10/24 14:47:16;;;;;;;1.20;1.20;;;;;;;;;;4976923;28;20237;-59
2022/10/24 14:49:42;;;;;;;1.20;1.20;;;;;;;;;;4976122;28;20520;-59
2022/10/24 14:52:08;;;;;;;1.30;1.30;;;;;;;;;;4979071;28;20236;-59